Time;durP1;ratioP1;P1;durP2;ratioP2;P2;SDS_P1;SDS_P2;PMS_P1;PMS_P2;Temp;Humidity;BMP_temperature;BMP_pressure;BME280_temperature;BME280_humidity;BME280_pressure;Samples;Min_cycle;Max_cycle;Signal;HPM_P1;HPM_P2
2023/03/08 05:07:50;;;;;;;6.63;3.70;;;5.00;94.00;;;;;;5012640;28;20640;-63
2023/03/08 05:10:15;;;;;;;4.70;4.30;;;5.00;93.90;;;;;;5014089;28;20177;-62
2023/03/08 05:12:41;;;;;;;4.00;3.63;;;5.00;93.90;;;;;;5014032;28;20175;-62
2023/03/08 05:15:07;;;;;;;7.37;4.83;;;5.10;93.90;;;;;;5013627;28;20194;-62
2023/03/08 05:17:32;;;;;;;4.90;3.73;;;5.10;93.90;;;;;;5014042;28;20186;-63
2023/03/08 05:19:58;;;;;;;7.50;4.67;;;5.10;93.90;;;;;;5014276;28;20751;-62
2023/03/08 05:22:24;;;;;;;3.70;3.40;;;5.10;93.80;;;;;;5013723;28;20179;-63
2023/03/08 05:24:49;;;;;;;4.30;3.90;;;5.00;93.90;;;;;;4995290;28;20197;-63
2023/03/08 05:27:15;;;;;;;7.47;4.77;;;5.00;93.90;;;;;;4992797;28;20176;-62
2023/03/08 05:29:41;;;;;;;4.93;4.07;;;5.00;94.20;;;;;;4994122;28;20215;-63
2023/03/08 05:32:10;;;;;;;8.13;4.60;;;5.00;94.30;;;;;;4993942;28;20631;-62
2023/03/08 05:34:35;;;;;;;7.70;5.22;;;5.00;94.00;;;;;;4992381;28;20195;-62
2023/03/08 05:37:01;;;;;;;6.80;5.93;;;5.10;94.10;;;;;;4994101;28;20171;-62
2023/03/08 05:39:28;;;;;;;7.23;4.40;;;5.20;94.00;;;;;;4994121;28;20580;-62
2023/03/08 05:41:55;;;;;;;4.88;4.03;;;5.30;93.80;;;;;;4994065;28;20541;-62
2023/03/08 05:44:20;;;;;;;5.97;4.45;;;5.30;93.60;;;;;;4993357;28;20201;-62
2023/03/08 05:46:49;;;;;;;6.37;4.30;;;5.40;93.60;;;;;;4993529;28;20523;-63
2023/03/08 05:49:14;;;;;;;5.32;3.72;;;5.40;93.70;;;;;;4992888;28;20262;-63
2023/03/08 05:51:40;;;;;;;5.83;3.97;;;5.40;93.50;;;;;;4993343;28;20207;-62
2023/03/08 05:54:06;;;;;;;8.73;4.20;;;5.50;93.50;;;;;;4993390;28;20205;-62
2023/03/08 05:56:31;;;;;;;8.00;4.50;;;5.40;93.60;;;;;;4993413;28;20183;-63
2023/03/08 05:58:57;;;;;;;5.47;4.10;;;5.50;93.70;;;;;;4993550;28;20176;-63
2023/03/08 06:01:25;;;;;;;6.30;4.70;;;5.40;93.60;;;;;;4993451;28;20168;-61
2023/03/08 06:03:53;;;;;;;3.92;3.40;;;5.40;93.60;;;;;;4993236;28;20737;-64
2023/03/08 06:06:20;;;;;;;8.10;5.35;;;5.40;93.70;;;;;;5007928;28;20195;-63
2023/03/08 06:08:47;;;;;;;5.82;4.20;;;5.40;93.80;;;;;;5033228;28;20585;-62
2023/03/08 06:11:13;;;;;;;6.72;4.85;;;5.40;93.80;;;;;;5032977;28;20196;-62
2023/03/08 06:13:39;;;;;;;5.65;3.88;;;5.40;93.80;;;;;;5032530;28;20509;-64
2023/03/08 06:16:05;;;;;;;5.63;4.40;;;5.40;93.80;;;;;;5033917;28;20306;-63
2023/03/08 06:18:32;;;;;;;5.40;3.83;;;5.50;93.70;;;;;;5032894;28;20927;-64
2023/03/08 06:21:02;;;;;;;5.80;4.65;;;5.50;93.70;;;;;;5031677;28;20178;-64
2023/03/08 06:23:29;;;;;;;6.03;4.68;;;5.60;93.60;;;;;;5032960;28;20222;-64
2023/03/08 06:25:55;;;;;;;6.22;3.92;;;5.60;93.40;;;;;;5038768;28;20549;-65
2023/03/08 06:28:22;;;;;;;9.73;5.03;;;5.60;93.40;;;;;;5043074;28;20205;-65
2023/03/08 06:30:50;;;;;;;6.85;4.05;;;5.60;93.40;;;;;;5052733;28;20531;-65
2023/03/08 06:33:17;;;;;;;4.85;3.80;;;5.70;93.50;;;;;;5052121;28;20162;-65
2023/03/08 06:35:53;;;;;;;5.65;4.05;;;5.60;93.70;;;;;;5042352;28;20205;-65
2023/03/08 06:38:19;;;;;;;5.25;4.10;;;5.60;93.70;;;;;;5031802;28;20186;-64
2023/03/08 06:40:44;;;;;;;5.70;4.20;;;5.60;93.80;;;;;;5044372;28;20188;-66
2023/03/08 06:43:10;;;;;;;5.63;4.27;;;5.60;93.80;;;;;;5054367;28;20167;-63
2023/03/08 06:45:37;;;;;;;5.27;4.50;;;5.60;93.80;;;;;;5054106;28;20261;-64
2023/03/08 06:48:03;;;;;;;4.65;3.90;;;5.60;93.80;;;;;;5055708;28;20182;-62
2023/03/08 06:50:28;;;;;;;5.10;4.47;;;5.60;93.80;;;;;;5047905;28;20177;-64
2023/03/08 06:52:54;;;;;;;7.20;4.23;;;5.60;93.80;;;;;;5052331;28;20168;-64
2023/03/08 06:55:20;;;;;;;8.07;4.60;;;5.60;93.80;;;;;;5051408;28;20201;-62
2023/03/08 06:57:46;;;;;;;6.67;4.50;;;5.70;93.80;;;;;;5045460;28;20431;-63
2023/03/08 07:00:12;;;;;;;8.50;5.07;;;5.70;93.80;;;;;;5050099;28;20423;-64
2023/03/08 07:02:38;;;;;;;7.80;4.72;;;5.60;93.70;;;;;;5055697;28;20215;-63
2023/03/08 07:05:04;;;;;;;7.10;3.90;;;5.60;93.80;;;;;;5054483;28;20280;-64
2023/03/08 07:07:29;;;;;;;4.93;4.03;;;5.70;93.70;;;;;;5055955;28;20419;-64
2023/03/08 07:09:56;;;;;;;7.50;4.60;;;5.70;93.60;;;;;;5056028;28;20408;-63
2023/03/08 07:12:22;;;;;;;5.93;4.65;;;5.80;93.60;;;;;;5044738;28;20185;-63
2023/03/08 07:14:48;;;;;;;5.10;3.90;;;5.80;93.60;;;;;;5035372;28;20185;-63
2023/03/08 07:17:13;;;;;;;3.50;3.20;;;5.80;93.60;;;;;;5035762;28;20414;-63
2023/03/08 07:19:39;;;;;;;3.67;3.13;;;5.80;93.50;;;;;;5035834;28;20173;-63
2023/03/08 07:22:04;;;;;;;4.27;3.90;;;5.80;93.40;;;;;;5035849;28;20169;-63
2023/03/08 07:24:30;;;;;;;6.30;4.23;;;5.90;93.40;;;;;;5033935;28;20756;-63
2023/03/08 07:26:56;;;;;;;4.53;3.90;;;5.80;93.30;;;;;;5043301;28;20244;-63
2023/03/08 07:29:21;;;;;;;7.00;4.60;;;5.80;93.60;;;;;;5054338;28;20182;-64
2023/03/08 07:31:47;;;;;;;5.23;4.00;;;5.80;93.60;;;;;;5055629;28;20165;-63
2023/03/08 07:34:12;;;;;;;7.37;4.90;;;5.90;93.60;;;;;;5054990;28;20197;-63
2023/03/08 07:36:38;;;;;;;8.67;5.00;;;5.80;93.60;;;;;;5055763;28;20174;-64
2023/03/08 07:39:04;;;;;;;6.15;4.10;;;5.90;93.70;;;;;;5053915;28;20268;-64
2023/03/08 07:41:31;;;;;;;2.83;2.60;;;5.90;93.60;;;;;;5048725;28;20630;-63
2023/03/08 07:43:57;;;;;;;5.15;4.45;;;6.00;93.60;;;;;;5034874;28;20489;-63
2023/03/08 07:46:23;;;;;;;5.80;4.77;;;6.10;93.60;;;;;;5035439;28;20248;-63
2023/03/08 07:48:51;;;;;;;6.20;3.97;;;6.10;93.50;;;;;;5035702;28;20162;-63
2023/03/08 07:51:16;;;;;;;5.70;4.65;;;6.20;93.20;;;;;;5037733;28;20228;-64
2023/03/08 07:53:42;;;;;;;12.10;5.10;;;6.20;93.10;;;;;;5053435;28;20640;-64
2023/03/08 07:56:08;;;;;;;8.73;5.67;;;6.20;93.20;;;;;;5055097;28;20179;-63
2023/03/08 07:58:34;;;;;;;5.77;4.53;;;6.20;93.30;;;;;;5037776;28;20271;-63
2023/03/08 08:00:59;;;;;;;5.93;4.50;;;6.10;93.30;;;;;;5035017;28;20415;-63
2023/03/08 08:03:25;;;;;;;6.37;3.70;;;6.10;93.50;;;;;;5034799;28;20201;-63
2023/03/08 08:05:51;;;;;;;8.10;5.30;;;6.00;93.40;;;;;;5033242;28;20219;-63
2023/03/08 08:08:16;;;;;;;4.47;3.53;;;6.00;93.60;;;;;;5035164;28;20534;-62
2023/03/08 08:10:42;;;;;;;7.77;4.83;;;6.00;93.90;;;;;;5034865;28;20180;-64
2023/03/08 08:13:08;;;;;;;4.82;4.25;;;6.00;94.00;;;;;;5049883;28;20199;-64
2023/03/08 08:15:34;;;;;;;5.03;3.92;;;6.10;94.40;;;;;;5054471;28;20219;-63
2023/03/08 08:18:00;;;;;;;9.47;5.07;;;6.10;94.80;;;;;;5054543;28;20592;-64
2023/03/08 08:20:26;;;;;;;5.83;4.57;;;6.10;95.50;;;;;;5054546;28;20408;-63
2023/03/08 08:22:52;;;;;;;5.55;4.45;;;6.20;96.10;;;;;;5052991;28;20181;-64
2023/03/08 08:25:19;;;;;;;7.32;4.82;;;6.30;95.50;;;;;;5054168;28;20197;-66
2023/03/08 08:27:45;;;;;;;7.10;4.80;;;6.40;95.40;;;;;;5034397;28;20178;-63
2023/03/08 08:30:14;;;;;;;6.00;4.43;;;6.50;95.40;;;;;;5034402;28;20299;-64
2023/03/08 08:32:39;;;;;;;5.75;5.20;;;6.50;95.30;;;;;;5034337;28;20169;-63
2023/03/08 08:35:06;;;;;;;5.70;4.57;;;6.70;95.40;;;;;;5033997;28;20193;-64
2023/03/08 08:37:32;;;;;;;6.82;4.82;;;6.70;95.20;;;;;;5034407;28;20411;-64
2023/03/08 08:39:58;;;;;;;6.72;5.03;;;6.70;95.50;;;;;;5034322;28;20178;-64
2023/03/08 08:42:24;;;;;;;7.00;5.03;;;6.60;95.50;;;;;;5053163;28;20263;-65
2023/03/08 08:44:51;;;;;;;7.53;4.63;;;6.60;95.40;;;;;;5053529;28;20463;-63
2023/03/08 08:47:17;;;;;;;7.03;5.10;;;6.50;95.50;;;;;;5053962;28;20165;-63
2023/03/08 08:49:42;;;;;;;6.87;5.20;;;6.30;95.90;;;;;;5053939;28;20158;-63
2023/03/08 08:52:08;;;;;;;7.70;4.60;;;6.20;96.50;;;;;;5053915;28;20215;-63
2023/03/08 08:54:34;;;;;;;7.27;5.17;;;6.20;97.40;;;;;;5053523;28;20190;-63
2023/03/08 08:56:59;;;;;;;8.30;5.80;;;6.00;97.80;;;;;;5035686;28;20180;-64
2023/03/08 08:59:25;;;;;;;9.10;6.03;;;5.90;98.60;;;;;;5033792;28;20172;-63
2023/03/08 09:01:50;;;;;;;9.40;6.17;;;5.80;99.00;;;;;;5033888;28;20172;-63
2023/03/08 09:04:16;;;;;;;8.23;6.10;;;5.80;99.50;;;;;;5040895;28;20200;-63
2023/03/08 09:06:42;;;;;;;5.60;4.20;;;5.70;99.40;;;;;;5053197;28;20536;-63
2023/03/08 09:09:08;;;;;;;13.40;7.87;;;5.60;99.80;;;;;;5052862;28;20177;-63
2023/03/08 09:11:34;;;;;;;8.02;5.22;;;5.60;99.90;;;;;;5053776;28;20258;-63
2023/03/08 09:14:01;;;;;;;9.27;5.60;;;5.50;99.90;;;;;;5053298;28;20181;-63
2023/03/08 09:16:32;;;;;;;6.63;5.25;;;5.50;99.90;;;;;;5053551;28;20165;-63
2023/03/08 09:18:59;;;;;;;7.40;5.18;;;5.50;99.90;;;;;;5052937;28;20216;-62
2023/03/08 09:21:27;;;;;;;6.30;4.55;;;5.50;99.90;;;;;;5053203;28;20180;-63
2023/03/08 09:23:53;;;;;;;8.73;5.97;;;5.40;99.90;;;;;;5052222;28;20280;-63
2023/03/08 09:26:18;;;;;;;11.63;6.03;;;5.50;99.90;;;;;;5052925;28;20550;-63
2023/03/08 09:28:44;;;;;;;10.07;6.23;;;5.50;99.90;;;;;;5052842;28;20177;-63
2023/03/08 09:31:13;;;;;;;7.43;4.40;;;5.50;99.90;;;;;;5053242;28;20641;-63
2023/03/08 09:33:47;;;;;;;6.93;6.15;;;5.50;99.90;;;;;;5052807;28;20401;-63
2023/03/08 09:36:13;;;;;;;7.22;6.55;;;5.50;99.90;;;;;;5053055;28;20178;-63
2023/03/08 09:38:39;;;;;;;9.25;5.68;;;5.60;99.90;;;;;;5051914;28;20246;-64
2023/03/08 09:41:52;;;;;;;7.32;6.05;;;5.60;99.90;;;;;;5053306;28;20177;-63
2023/03/08 09:44:55;;;;;;;8.57;5.55;;;5.70;99.90;;;;;;5010272;28;20207;-63
2023/03/08 09:47:40;;;;;;;9.23;6.35;;;5.80;99.90;;;;;;5011163;28;20259;-63
2023/03/08 09:50:11;;;;;;;11.45;5.70;;;5.80;99.90;;;;;;5011184;28;20722;-63
2023/03/08 09:52:45;;;;;;;13.45;5.55;;;5.90;99.90;;;;;;5010808;28;20202;-63
2023/03/08 09:55:24;;;;;;;9.35;6.95;;;6.00;99.90;;;;;;5011065;28;20220;-63
2023/03/08 09:57:52;;;;;;;12.00;6.85;;;6.10;99.90;;;;;;5010185;28;20206;-63
2023/03/08 10:00:28;;;;;;;9.65;6.88;;;6.10;99.90;;;;;;4992473;28;20225;-63
2023/03/08 10:03:10;;;;;;;10.50;6.95;;;6.20;99.90;;;;;;5005336;28;20181;-63
2023/03/08 10:05:50;;;;;;;9.45;6.80;;;6.20;99.90;;;;;;5010608;28;20286;-63
2023/03/08 10:08:23;;;;;;;9.15;6.15;;;6.30;99.90;;;;;;5010829;28;20598;-62
2023/03/08 10:11:00;;;;;;;9.88;6.97;;;6.40;99.90;;;;;;5010699;28;20251;-63
2023/03/08 10:13:37;;;;;;;9.82;7.13;;;6.60;99.90;;;;;;5005626;28;20221;-63
2023/03/08 10:16:18;;;;;;;11.85;6.57;;;6.70;99.90;;;;;;5048340;28;20183;-63
2023/03/08 10:19:13;;;;;;;9.30;6.45;;;6.90;99.90;;;;;;5055265;28;20585;-64
2023/03/08 10:21:42;;;;;;;9.48;5.95;;;7.10;99.90;;;;;;5042607;28;20242;-63
2023/03/08 10:24:32;;;;;;;6.30;5.53;;;7.30;99.90;;;;;;5055969;28;20200;-63
2023/03/08 10:27:13;;;;;;;8.27;6.65;;;7.50;99.90;;;;;;5042710;28;20170;-63
2023/03/08 10:29:46;;;;;;;10.20;4.10;;;7.70;99.90;;;;;;5036465;28;20181;-63
2023/03/08 10:32:12;;;;;;;4.85;3.90;;;8.00;99.90;;;;;;5037280;28;20236;-63
2023/03/08 10:34:38;;;;;;;4.50;4.10;;;8.20;99.90;;;;;;5054471;28;20189;-62
2023/03/08 10:37:08;;;;;;;5.10;4.43;;;8.40;99.90;;;;;;5052729;28;20552;-63
2023/03/08 10:39:53;;;;;;;4.55;3.88;;;8.70;99.90;;;;;;5036576;28;20683;-63
2023/03/08 10:42:25;;;;;;;5.22;4.30;;;9.00;99.90;;;;;;5036530;28;20240;-65
2023/03/08 10:44:57;;;;;;;6.03;3.85;;;9.10;99.90;;;;;;5036176;28;20288;-63
2023/03/08 10:47:32;;;;;;;4.32;3.25;;;9.20;99.90;;;;;;5036375;28;20166;-64
2023/03/08 10:50:17;;;;;;;5.40;3.63;;;9.30;99.90;;;;;;5036251;28;20196;-63
2023/03/08 10:52:44;;;;;;;4.40;3.28;;;9.30;99.90;;;;;;5043153;28;20173;-63
2023/03/08 10:55:20;;;;;;;6.25;3.60;;;9.40;99.90;;;;;;5055039;28;20189;-64
2023/03/08 10:58:00;;;;;;;4.45;2.83;;;9.50;99.90;;;;;;5056045;28;20173;-65
2023/03/08 11:00:31;;;;;;;4.78;3.28;;;9.60;99.90;;;;;;5056174;28;20207;-63
2023/03/08 11:03:09;;;;;;;4.15;3.40;;;9.60;99.90;;;;;;5055729;28;20170;-64
2023/03/08 11:05:35;;;;;;;8.38;2.47;;;9.80;99.90;;;;;;5055875;28;20765;-64
2023/03/08 11:08:02;;;;;;;2.50;2.30;;;10.00;99.90;;;;;;5067373;28;20186;-63
2023/03/08 11:10:31;;;;;;;2.38;2.13;;;10.10;99.90;;;;;;5076068;28;20194;-65
2023/03/08 11:13:24;;;;;;;2.50;2.20;;;10.30;99.90;;;;;;5075681;28;20161;-64
2023/03/08 11:16:01;;;;;;;1.90;1.80;;;10.50;99.90;;;;;;5076050;28;20190;-63
2023/03/08 11:18:38;;;;;;;1.70;1.60;;;10.80;99.90;;;;;;5075989;28;20175;-63
2023/03/08 11:21:13;;;;;;;4.13;1.97;;;11.00;99.90;;;;;;5066650;28;20425;-64
2023/03/08 11:23:49;;;;;;;1.60;1.43;;;11.20;99.90;;;;;;5055003;28;20429;-66
2023/03/08 11:26:29;;;;;;;1.10;1.10;;;11.50;99.90;;;;;;5055967;28;20945;-66
2023/03/08 11:29:27;;;;;;;1.07;0.87;;;11.70;99.90;;;;;;5055629;28;20405;-64
2023/03/08 11:32:01;;;;;;;1.20;1.10;;;11.90;99.90;;;;;;5051863;28;20919;-66
2023/03/08 11:34:35;;;;;;;1.07;1.07;;;12.00;99.90;;;;;;5055291;28;20422;-65
2023/03/08 11:37:11;;;;;;;0.87;0.87;;;12.00;99.90;;;;;;5037224;28;20414;-65
2023/03/08 11:39:37;;;;;;;2.47;1.03;;;12.00;99.90;;;;;;5035720;28;20407;-65
2023/03/08 11:42:18;;;;;;;0.70;0.70;;;12.00;99.90;;;;;;5035802;28;20414;-65
2023/03/08 11:44:47;;;;;;;0.97;0.77;;;12.10;99.90;;;;;;5035012;28;20204;-65
2023/03/08 11:47:24;;;;;;;0.80;0.80;;;12.10;99.90;;;;;;5035095;28;20832;-66
2023/03/08 11:49:58;;;;;;;1.23;0.70;;;12.10;99.90;;;;;;5037335;28;20469;-66
2023/03/08 11:52:44;;;;;;;1.10;1.00;;;12.20;99.90;;;;;;5055229;28;20426;-64
2023/03/08 11:55:10;;;;;;;0.80;0.80;;;12.20;99.90;;;;;;5054951;28;20422;-66
2023/03/08 11:57:44;;;;;;;0.90;0.70;;;12.30;99.90;;;;;;5054763;28;20385;-66
2023/03/08 12:00:32;;;;;;;1.23;0.77;;;12.40;99.90;;;;;;5055098;28;20176;-66
2023/03/08 12:03:07;;;;;;;2.47;1.10;;;12.50;99.90;;;;;;5054870;28;20407;-66
2023/03/08 12:05:37;;;;;;;1.13;1.03;;;12.60;99.90;;;;;;5044319;28;20498;-66
2023/03/08 12:08:16;;;;;;;0.97;0.97;;;12.50;99.90;;;;;;5034688;28;20423;-65
2023/03/08 12:10:57;;;;;;;0.50;0.50;;;12.50;99.90;;;;;;5035014;28;20419;-64
2023/03/08 12:13:32;;;;;;;0.60;0.60;;;12.50;99.90;;;;;;5034807;28;20752;-65
2023/03/08 12:16:10;;;;;;;1.03;1.03;;;12.50;99.90;;;;;;5035005;28;20476;-69
2023/03/08 12:18:49;;;;;;;1.07;0.80;;;12.50;99.90;;;;;;5034843;28;20410;-66
2023/03/08 12:21:33;;;;;;;1.20;1.20;;;12.50;99.90;;;;;;5052361;28;20421;-67
2023/03/08 12:24:11;;;;;;;0.70;0.50;;;12.50;99.90;;;;;;5052866;28;20505;-67
2023/03/08 12:26:42;;;;;;;0.87;0.87;;;12.60;99.90;;;;;;5054595;28;20448;-63
2023/03/08 12:29:24;;;;;;;0.70;0.70;;;12.60;99.90;;;;;;5054774;28;20411;-63
2023/03/08 12:31:50;;;;;;;0.60;0.50;;;12.70;99.90;;;;;;5054413;28;20397;-64
2023/03/08 12:34:35;;;;;;;0.70;0.70;;;12.80;99.90;;;;;;5038946;28;20802;-63
2023/03/08 12:37:00;;;;;;;0.80;0.80;;;12.90;99.90;;;;;;5054685;28;20433;-63
2023/03/08 12:39:34;;;;;;;0.67;0.67;;;12.90;99.90;;;;;;5054393;28;20923;-63
2023/03/08 12:42:07;;;;;;;0.70;0.60;;;13.00;99.90;;;;;;5054305;28;20180;-64
2023/03/08 12:44:32;;;;;;;1.13;1.03;;;13.00;99.90;;;;;;5053707;28;20455;-64
2023/03/08 12:47:00;;;;;;;0.90;0.90;;;13.00;99.90;;;;;;5052256;28;20814;-65
2023/03/08 12:49:38;;;;;;;0.93;0.93;;;13.00;99.90;;;;;;5054051;28;20196;-63
2023/03/08 12:52:16;;;;;;;0.87;0.87;;;13.00;99.90;;;;;;5052639;28;20461;-62
2023/03/08 12:54:43;;;;;;;0.60;0.60;;;12.90;99.90;;;;;;5053540;28;20442;-66
2023/03/08 12:57:22;;;;;;;0.87;0.80;;;13.00;99.90;;;;;;5052628;28;20818;-66
2023/03/08 12:59:54;;;;;;;0.90;0.90;;;13.00;99.90;;;;;;5054202;28;20403;-68
2023/03/08 13:02:25;;;;;;;0.67;0.67;;;12.90;99.90;;;;;;5047727;28;20490;-69
2023/03/08 13:05:18;;;;;;;0.70;0.70;;;13.00;99.90;;;;;;5053131;28;20459;-67
2023/03/08 13:08:13;;;;;;;0.70;0.70;;;12.90;99.90;;;;;;5053902;28;20530;-67
2023/03/08 13:10:59;;;;;;;0.63;0.63;;;12.90;99.90;;;;;;5051547;28;20424;-66
2023/03/08 13:13:36;;;;;;;0.60;0.60;;;13.00;99.90;;;;;;5038985;28;20415;-66
2023/03/08 13:16:14;;;;;;;0.67;0.67;;;13.00;99.90;;;;;;5034034;28;20760;-66
2023/03/08 13:18:42;;;;;;;0.80;0.80;;;13.00;99.90;;;;;;5033669;28;20444;-67
2023/03/08 13:21:40;;;;;;;0.60;0.60;;;13.00;99.90;;;;;;5033930;28;20431;-66
2023/03/08 13:24:30;;;;;;;0.67;0.67;;;12.90;99.90;;;;;;5052012;28;20435;-66
2023/03/08 13:27:13;;;;;;;1.17;0.60;;;13.00;99.90;;;;;;5053515;28;20727;-67
2023/03/08 13:29:40;;;;;;;0.60;0.60;;;13.00;99.90;;;;;;5053774;28;20397;-67
2023/03/08 13:32:18;;;;;;;1.00;0.90;;;13.00;99.90;;;;;;5051528;28;20419;-67
2023/03/08 13:34:46;;;;;;;0.77;0.77;;;13.00;99.90;;;;;;5052841;28;20499;-66
2023/03/08 13:37:26;;;;;;;1.00;1.00;;;13.10;99.90;;;;;;5052992;28;20411;-67
2023/03/08 13:39:54;;;;;;;1.37;0.63;;;13.20;99.90;;;;;;5053332;28;20399;-68
2023/03/08 13:42:23;;;;;;;0.60;0.60;;;13.20;99.90;;;;;;5049050;28;20775;-67
2023/03/08 13:44:51;;;;;;;0.60;0.60;;;13.30;99.90;;;;;;5032708;28;20480;-66
2023/03/08 13:47:24;;;;;;;1.10;0.60;;;13.30;99.90;;;;;;5033483;28;20412;-66
2023/03/08 13:49:52;;;;;;;0.70;0.70;;;13.40;99.90;;;;;;5033644;28;20411;-66
2023/03/08 13:52:21;;;;;;;0.93;0.93;;;13.50;99.90;;;;;;5034263;28;20465;-68
2023/03/08 13:54:56;;;;;;;0.50;0.50;;;13.70;99.90;;;;;;5050470;28;20808;-67
2023/03/08 13:57:32;;;;;;;0.90;0.90;;;13.70;99.90;;;;;;5050994;28;20518;-68
2023/03/08 14:00:20;;;;;;;1.30;1.20;;;13.80;99.90;;;;;;5050980;28;20548;-68
2023/03/08 14:02:46;;;;;;;0.80;0.80;;;13.80;99.90;;;;;;5044919;28;20946;-69
2023/03/08 14:05:23;;;;;;;1.17;0.90;;;13.90;99.90;;;;;;5050646;28;20511;-67
2023/03/08 14:07:57;;;;;;;0.83;0.83;;;13.90;99.90;;;;;;5052300;28;20396;-67
2023/03/08 14:10:30;;;;;;;0.60;0.60;;;14.00;99.90;;;;;;5052993;28;20404;-66
2023/03/08 14:12:56;;;;;;;0.60;0.60;;;14.00;99.90;;;;;;5051032;28;20408;-67
2023/03/08 14:15:22;;;;;;;0.60;0.50;;;14.00;99.90;;;;;;5033052;28;20439;-69
2023/03/08 14:17:48;;;;;;;0.67;0.60;;;14.00;99.90;;;;;;5032910;28;20393;-67
2023/03/08 14:20:23;;;;;;;0.50;0.50;;;14.10;99.90;;;;;;5033344;28;20177;-67
2023/03/08 14:22:52;;;;;;;0.50;0.50;;;14.10;99.90;;;;;;5031293;28;20176;-67
2023/03/08 14:25:35;;;;;;;0.70;0.60;;;14.20;99.90;;;;;;5032846;28;20452;-66
2023/03/08 14:28:01;;;;;;;0.60;0.60;;;14.20;99.90;;;;;;5033144;28;20589;-67
2023/03/08 14:30:28;;;;;;;0.60;0.60;;;14.20;99.90;;;;;;5032740;28;20816;-67
2023/03/08 14:33:01;;;;;;;0.50;0.50;;;14.10;99.90;;;;;;5032534;28;20566;-68
2023/03/08 14:35:39;;;;;;;0.33;0.33;;;14.00;99.90;;;;;;5039287;28;20510;-66
2023/03/08 14:38:23;;;;;;;0.67;0.67;;;14.00;99.90;;;;;;5053039;28;20407;-66
2023/03/08 14:40:49;;;;;;;1.87;0.60;;;13.90;99.90;;;;;;5052861;28;20439;-66
2023/03/08 14:43:18;;;;;;;0.57;0.57;;;13.80;99.90;;;;;;5052236;28;20752;-68
2023/03/08 14:45:54;;;;;;;0.60;0.50;;;13.80;99.90;;;;;;5045745;28;20484;-66
2023/03/08 14:48:32;;;;;;;0.50;0.50;;;13.70;99.90;;;;;;5031526;28;20417;-67
2023/03/08 14:50:57;;;;;;;0.50;0.50;;;13.80;99.90;;;;;;5032741;28;20499;-67
2023/03/08 14:53:35;;;;;;;0.50;0.50;;;13.80;99.90;;;;;;5032339;28;20488;-67
2023/03/08 14:56:21;;;;;;;1.03;1.03;;;13.90;99.90;;;;;;5040619;28;20188;-67
2023/03/08 14:58:49;;;;;;;0.50;0.50;;;14.00;99.90;;;;;;5033510;28;20843;-67
2023/03/08 15:01:33;;;;;;;0.50;0.43;;;14.00;99.90;;;;;;5032658;28;20419;-67
2023/03/08 15:04:00;;;;;;;1.90;0.67;;;14.10;99.90;;;;;;5034010;28;20536;-67
2023/03/08 15:06:30;;;;;;;2.07;0.57;;;14.10;99.90;;;;;;5036078;28;20475;-66
2023/03/08 15:08:57;;;;;;;0.40;0.40;;;14.00;99.90;;;;;;5054627;28;20784;-67
2023/03/08 15:11:23;;;;;;;0.80;0.80;;;13.90;99.90;;;;;;5055994;28;20788;-67
2023/03/08 15:13:49;;;;;;;0.80;0.80;;;13.90;99.90;;;;;;5055538;28;20416;-68
2023/03/08 15:16:14;;;;;;;1.53;0.80;;;13.80;99.90;;;;;;5055994;28;20529;-66
2023/03/08 15:18:41;;;;;;;0.60;0.60;;;13.80;99.90;;;;;;5039212;28;20512;-67
2023/03/08 15:21:12;;;;;;;2.20;1.00;;;13.80;99.90;;;;;;5035806;28;20180;-67
2023/03/08 15:23:38;;;;;;;0.83;0.73;;;13.80;99.90;;;;;;5035678;28;20773;-66
2023/03/08 15:26:07;;;;;;;0.60;0.60;;;13.80;99.90;;;;;;5035986;28;20455;-66
2023/03/08 15:28:33;;;;;;;1.80;0.40;;;13.90;99.90;;;;;;5049807;28;20173;-67
2023/03/08 15:30:58;;;;;;;1.73;0.80;;;13.90;99.90;;;;;;5055683;28;20415;-67
2023/03/08 15:33:24;;;;;;;1.17;0.80;;;14.00;99.90;;;;;;5055169;28;20265;-66
2023/03/08 15:35:50;;;;;;;1.50;0.60;;;14.10;99.90;;;;;;5055608;28;20495;-66
2023/03/08 15:38:18;;;;;;;1.00;0.90;;;14.20;99.90;;;;;;5043188;28;20209;-67
2023/03/08 15:40:44;;;;;;;3.70;0.90;;;14.30;99.90;;;;;;5035513;28;20425;-67
2023/03/08 15:43:09;;;;;;;1.00;0.93;;;14.30;99.90;;;;;;5035223;28;20416;-67
2023/03/08 15:45:36;;;;;;;0.90;0.60;;;14.20;99.90;;;;;;5035183;28;20833;-67
2023/03/08 15:48:10;;;;;;;0.93;0.93;;;14.10;99.90;;;;;;5044962;28;20907;-67
2023/03/08 15:50:36;;;;;;;0.50;0.50;;;14.00;99.90;;;;;;5055557;28;20491;-66
2023/03/08 15:53:02;;;;;;;0.93;0.93;;;13.90;99.90;;;;;;5054955;28;20494;-66
2023/03/08 15:55:29;;;;;;;0.80;0.80;;;13.80;99.90;;;;;;5055241;28;20223;-66
2023/03/08 15:57:55;;;;;;;0.50;0.50;;;13.80;99.90;;;;;;5047255;28;20516;-66
2023/03/08 16:00:22;;;;;;;0.47;0.47;;;13.70;99.90;;;;;;5031265;28;20845;-66
2023/03/08 16:02:48;;;;;;;0.50;0.50;;;13.60;99.90;;;;;;5054821;28;20497;-66
2023/03/08 16:05:14;;;;;;;0.90;0.67;;;13.60;99.90;;;;;;5054581;28;20462;-66
2023/03/08 16:07:41;;;;;;;0.70;0.70;;;13.60;99.90;;;;;;5053990;28;20854;-66
2023/03/08 16:10:12;;;;;;;0.73;0.63;;;13.60;99.90;;;;;;5054942;28;20495;-65
2023/03/08 16:12:38;;;;;;;0.70;0.70;;;13.50;99.90;;;;;;5052883;28;20477;-66
2023/03/08 16:15:05;;;;;;;0.97;0.73;;;13.40;99.90;;;;;;5043678;28;20501;-66
2023/03/08 16:17:31;;;;;;;0.70;0.60;;;13.40;99.90;;;;;;5034764;28;20961;-66
2023/03/08 16:19:56;;;;;;;0.50;0.50;;;13.40;99.90;;;;;;5033437;28;20496;-64
2023/03/08 16:22:22;;;;;;;1.80;0.97;;;13.40;99.90;;;;;;5034367;28;20503;-65
2023/03/08 16:24:48;;;;;;;0.60;0.60;;;13.40;99.90;;;;;;5039676;28;20201;-67
2023/03/08 16:27:14;;;;;;;0.70;0.70;;;13.30;99.90;;;;;;5037617;28;20800;-65
2023/03/08 16:29:39;;;;;;;0.60;0.60;;;13.30;99.90;;;;;;5052526;28;20660;-66
2023/03/08 16:32:05;;;;;;;3.63;0.50;;;13.30;99.90;;;;;;5054980;28;20426;-64
2023/03/08 16:34:31;;;;;;;3.20;0.60;;;13.30;99.90;;;;;;5048513;28;20201;-63
2023/03/08 16:36:57;;;;;;;0.83;0.70;;;13.30;99.90;;;;;;5035445;28;20494;-66
2023/03/08 16:39:24;;;;;;;1.60;1.03;;;13.20;99.90;;;;;;5034596;28;20557;-65
2023/03/08 16:41:49;;;;;;;0.73;0.73;;;13.20;99.90;;;;;;5034192;28;20413;-64
2023/03/08 16:44:24;;;;;;;0.50;0.50;;;13.10;99.90;;;;;;5033347;28;20452;-63
2023/03/08 16:46:50;;;;;;;0.63;0.63;;;13.00;99.90;;;;;;5034171;28;20185;-64
2023/03/08 16:49:17;;;;;;;0.83;0.60;;;12.90;99.90;;;;;;5034032;28;20408;-66
2023/03/08 16:51:43;;;;;;;1.00;0.83;;;12.90;99.90;;;;;;5035143;28;20435;-65
2023/03/08 16:54:10;;;;;;;0.50;0.50;;;12.90;99.90;;;;;;5041948;28;20438;-63
2023/03/08 16:56:35;;;;;;;0.70;0.70;;;12.90;99.90;;;;;;5052301;28;20260;-63
2023/03/08 16:59:01;;;;;;;0.60;0.60;;;12.80;99.90;;;;;;5054153;28;20411;-63
2023/03/08 17:01:30;;;;;;;0.90;0.90;;;12.80;99.90;;;;;;5054032;28;20181;-63
2023/03/08 17:03:56;;;;;;;0.60;0.50;;;12.80;99.90;;;;;;5053254;28;20277;-63
2023/03/08 17:06:25;;;;;;;0.60;0.50;;;12.80;99.90;;;;;;5052670;28;20799;-62
2023/03/08 17:08:50;;;;;;;0.70;0.50;;;12.70;99.90;;;;;;5053964;28;20429;-62
2023/03/08 17:11:28;;;;;;;0.93;0.67;;;12.70;99.90;;;;;;5052423;28;20415;-63
2023/03/08 17:13:56;;;;;;;0.70;0.70;;;12.60;99.90;;;;;;5051994;28;20248;-66
2023/03/08 17:16:24;;;;;;;2.00;1.90;;;12.60;99.90;;;;;;5036697;28;20435;-65
2023/03/08 17:18:51;;;;;;;0.50;0.50;;;12.50;99.90;;;;;;5035806;28;20404;-66
2023/03/08 17:21:18;;;;;;;0.90;0.63;;;12.40;99.90;;;;;;5053553;28;20435;-65
2023/03/08 17:23:44;;;;;;;0.63;0.60;;;12.40;99.90;;;;;;5053008;28;20493;-66
2023/03/08 17:26:11;;;;;;;3.10;2.90;;;12.40;99.90;;;;;;5052269;28;20871;-68
2023/03/08 17:28:37;;;;;;;1.30;1.20;;;12.30;99.90;;;;;;5049683;28;20747;-67
2023/03/08 17:31:11;;;;;;;0.50;0.50;;;12.40;99.90;;;;;;5051420;28;20787;-65
2023/03/08 17:33:36;;;;;;;0.47;0.47;;;12.30;99.90;;;;;;5045634;28;20471;-64
2023/03/08 17:36:03;;;;;;;1.17;0.70;;;12.40;99.90;;;;;;5053204;28;20497;-65
2023/03/08 17:38:29;;;;;;;0.50;0.50;;;12.40;99.90;;;;;;5052990;28;20170;-64
2023/03/08 17:40:55;;;;;;;0.73;0.67;;;12.40;99.90;;;;;;5052323;28;20813;-64
2023/03/08 17:43:20;;;;;;;0.50;0.50;;;12.40;99.90;;;;;;5051406;28;20230;-65
2023/03/08 17:46:06;;;;;;;0.90;0.87;;;12.40;99.90;;;;;;5052893;28;20199;-64
2023/03/08 17:48:33;;;;;;;0.80;0.73;;;12.40;99.90;;;;;;5052853;28;20252;-65
2023/03/08 17:51:14;;;;;;;0.57;0.57;;;12.40;99.90;;;;;;5052294;28;20414;-66
2023/03/08 17:53:40;;;;;;;0.73;0.60;;;12.40;99.90;;;;;;5052507;28;20464;-66
2023/03/08 17:56:12;;;;;;;0.40;0.40;;;12.30;99.90;;;;;;5052932;28;20496;-66
2023/03/08 17:58:38;;;;;;;0.67;0.67;;;12.30;99.90;;;;;;5052948;28;20909;-65
2023/03/08 18:01:30;;;;;;;0.80;0.70;;;12.30;99.90;;;;;;5034387;28;20459;-66
2023/03/08 18:03:58;;;;;;;2.63;0.80;;;12.30;99.90;;;;;;5036931;28;20806;-65
2023/03/08 18:06:36;;;;;;;0.60;0.60;;;12.30;99.90;;;;;;5052699;28;20453;-66
2023/03/08 18:09:05;;;;;;;0.70;0.70;;;12.30;99.90;;;;;;5052400;28;20418;-65
2023/03/08 18:11:36;;;;;;;0.93;0.77;;;12.30;99.90;;;;;;5051560;28;20419;-64
2023/03/08 18:14:05;;;;;;;0.70;0.70;;;12.30;99.90;;;;;;5052415;28;20433;-63